Rankin, Illinois
Current Conditions -  °F | °C
As of 5:50 PM on Saturday 22 Nov 2014 (Local Time) from KTIP Reporting Station
Overcast Overcast  
Wind Chill: 55°   Ceiling: 2400
Heat Index: 55°   Visibility: 10mi
Dew Point: 47°   Wind: 12mph
Humidity: 76%   Direction: 210°SSW
Pressure: 29.95"   Gusts: NA
Location:  40.47°N, 87.9°W
Report Text: KTIP 222350Z AUTO 21010KT 10SM OVC024 13/08 A2995 RMK AO2 T01260084 10142 20125
Loading
Personal Weather Stations






























Interactive Weather Map New forecast layout! Learn more

10-Day Weather Forecast

Advertisements
Track Severe Weather on mobile